Butte Meadows, California
Current Conditions -  °F | °C
As of 5:35 AM on Saturday 25 Oct 2014 (Local Time) from KCIC Reporting Station
Overcast Overcast  
Wind Chill: 64°   Ceiling: 4000
Heat Index: 64°   Visibility: 10mi
Dew Point: 50°   Wind: 29mph
Humidity: 59%   Direction: 140°SE
Pressure: 29.83"   Gusts: 37mph
Location:  40.1192°N, 121.505°W
Report Text: KCIC 251235Z AUTO 14025G32KT 10SM OVC040 18/10 A2983 RMK AO1
Loading
Personal Weather Stations






























Interactive Weather Map
Tropical Storm Tracking
New forecast layout! Learn more

10-Day Weather Forecast

Advertisements
Track Severe Weather on mobile